Time;durP1;ratioP1;P1;durP2;ratioP2;P2;SDS_P1;SDS_P2;PMS_P1;PMS_P2;Temp;Humidity;BMP_temperature;BMP_pressure;BME280_temperature;BME280_humidity;BME280_pressure;Samples;Min_cycle;Max_cycle;Signal;HPM_P1;HPM_P2
2022/07/06 00:00:01;;;;;;;;;;;;;;;20.36;47.99;100372.81;1088282;54;19963;-82
2022/07/06 00:01:05;;;;;;;;;;;;;;;20.30;47.90;100372.78;1088340;54;19994;-83
2022/07/06 00:02:06;;;;;;;;;;;;;;;20.32;48.12;100370.72;1088332;54;19942;-83
2022/07/06 00:03:10;;;;;;;;;;;;;;;20.42;47.64;100376.59;1088339;54;19942;-82
2022/07/06 00:04:13;;;;;;;;;;;;;;;20.44;47.20;100368.25;1087867;54;20992;-83
2022/07/06 00:05:17;;;;;;;;;;;;;;;20.32;47.90;100374.25;1087853;54;19966;-82
2022/07/06 00:06:18;;;;;;;;;;;;;;;20.34;48.02;100368.63;1088080;54;19994;-84
2022/07/06 00:07:22;;;;;;;;;;;;;;;20.22;48.19;100377.34;1088343;54;19931;-83
2022/07/06 00:08:23;;;;;;;;;;;;;;;20.21;47.90;100369.41;1088321;54;20689;-83
2022/07/06 00:09:27;;;;;;;;;;;;;;;20.25;48.18;100378.81;1088322;54;19990;-81
2022/07/06 00:10:31;;;;;;;;;;;;;;;20.16;48.07;100377.31;1088765;46;19939;-82
2022/07/06 00:11:32;;;;;;;;;;;;;;;20.23;48.21;100379.03;1088229;54;19942;-82
2022/07/06 00:12:36;;;;;;;;;;;;;;;20.25;48.07;100371.53;1088288;54;20635;-80
2022/07/06 00:13:37;;;;;;;;;;;;;;;20.29;48.23;100371.97;1088327;54;19961;-82
2022/07/06 00:14:41;;;;;;;;;;;;;;;20.22;48.63;100371.06;1088267;54;19949;-83
2022/07/06 00:15:42;;;;;;;;;;;;;;;20.13;48.45;100369.53;1088290;54;19939;-82
2022/07/06 00:16:46;;;;;;;;;;;;;;;20.08;48.71;100376.44;1089870;46;20016;-82
2022/07/06 00:17:47;;;;;;;;;;;;;;;20.04;49.03;100368.88;1090332;46;19942;-81
2022/07/06 00:18:51;;;;;;;;;;;;;;;19.91;49.29;100372.34;1088303;54;19994;-81
2022/07/06 00:19:55;;;;;;;;;;;;;;;19.93;49.36;100383.84;1088491;46;19950;-81
2022/07/06 00:20:58;;;;;;;;;;;;;;;19.91;49.67;100381.31;1088262;54;19927;-81
2022/07/06 00:21:59;;;;;;;;;;;;;;;19.86;49.88;100377.53;1087934;54;19942;-80
2022/07/06 00:23:03;;;;;;;;;;;;;;;19.81;49.89;100386.22;1087864;54;19998;-81
2022/07/06 00:24:04;;;;;;;;;;;;;;;19.78;50.15;100387.47;1088017;54;19967;-81
2022/07/06 00:25:09;;;;;;;;;;;;;;;19.74;49.98;100380.75;1089534;46;19969;-84
2022/07/06 00:26:10;;;;;;;;;;;;;;;19.72;50.09;100381.97;1088254;54;19935;-80
2022/07/06 00:27:14;;;;;;;;;;;;;;;19.80;49.68;100390.81;1088339;54;19949;-81
2022/07/06 00:28:15;;;;;;;;;;;;;;;19.95;49.27;100381.75;1088310;54;19942;-82
2022/07/06 00:29:19;;;;;;;;;;;;;;;19.99;49.40;100385.75;1088281;54;19949;-82
2022/07/06 00:30:20;;;;;;;;;;;;;;;19.93;49.63;100384.69;1088195;54;19939;-83
2022/07/06 00:31:24;;;;;;;;;;;;;;;19.82;49.51;100382.47;1088223;54;19950;-83
2022/07/06 00:32:27;;;;;;;;;;;;;;;19.93;49.53;100383.84;1088259;54;19939;-82
2022/07/06 00:33:31;;;;;;;;;;;;;;;20.03;49.23;100375.34;1088219;54;20014;-81
2022/07/06 00:34:35;;;;;;;;;;;;;;;19.93;49.35;100373.81;1088304;54;19941;-85
2022/07/06 00:35:38;;;;;;;;;;;;;;;19.74;50.17;100375.31;1088210;54;20734;-84
2022/07/06 00:36:42;;;;;;;;;;;;;;;19.70;50.22;100378.63;1088273;54;19942;-83
2022/07/06 00:37:43;;;;;;;;;;;;;;;19.68;50.22;100381.53;1088239;54;19942;-83
2022/07/06 00:38:47;;;;;;;;;;;;;;;19.70;50.32;100382.19;1088210;54;19989;-83
2022/07/06 00:39:51;;;;;;;;;;;;;;;19.60;50.63;100378.97;1087911;54;19943;-83
2022/07/06 00:40:52;;;;;;;;;;;;;;;19.74;49.69;100386.16;1087917;54;19946;-83
2022/07/06 00:41:56;;;;;;;;;;;;;;;19.88;49.44;100381.75;1088083;54;19945;-82
2022/07/06 00:42:57;;;;;;;;;;;;;;;19.97;49.28;100382.41;1088069;54;19931;-84
2022/07/06 00:44:01;;;;;;;;;;;;;;;20.07;48.71;100384.78;1089142;39;20549;-83
2022/07/06 00:45:02;;;;;;;;;;;;;;;20.08;48.91;100381.84;1088175;54;19966;-83
2022/07/06 00:46:06;;;;;;;;;;;;;;;20.08;49.04;100384.56;1088247;54;19942;-83
2022/07/06 00:47:07;;;;;;;;;;;;;;;19.90;49.30;100387.78;1088305;54;19935;-82
2022/07/06 00:48:12;;;;;;;;;;;;;;;19.86;49.60;100385.66;1090734;39;20089;-85
2022/07/06 00:50:31;;;;;;;;;;;;;;;19.72;50.13;100382.84;1088163;54;19927;-82
2022/07/06 00:51:36;;;;;;;;;;;;;;;19.75;49.81;100387.84;1088318;54;19933;-82
2022/07/06 00:52:41;;;;;;;;;;;;;;;19.69;50.10;100388.66;1092977;39;20573;-82
2022/07/06 00:53:42;;;;;;;;;;;;;;;19.64;50.29;100393.84;1088242;54;19943;-82
2022/07/06 00:54:46;;;;;;;;;;;;;;;19.69;50.10;100391.34;1088249;54;19957;-82
2022/07/06 00:55:49;;;;;;;;;;;;;;;19.67;50.25;100384.47;1088243;54;19966;-82
2022/07/06 00:56:53;;;;;;;;;;;;;;;19.58;50.44;100387.31;1087419;54;19942;-83
2022/07/06 00:57:55;;;;;;;;;;;;;;;19.56;50.91;100389.38;1087908;54;19942;-81
2022/07/06 00:58:59;;;;;;;;;;;;;;;19.57;50.89;100387.50;1087804;54;19942;-84
2022/07/06 01:00:00;;;;;;;;;;;;;;;19.55;50.69;100386.88;1088236;54;19950;-82
2022/07/06 01:01:04;;;;;;;;;;;;;;;19.47;50.95;100385.97;1088270;54;20115;-81
2022/07/06 01:02:05;;;;;;;;;;;;;;;19.45;50.92;100385.34;1088205;54;19946;-82
2022/07/06 01:03:09;;;;;;;;;;;;;;;19.36;51.18;100383.78;1088186;54;19950;-82
2022/07/06 01:04:10;;;;;;;;;;;;;;;19.32;51.22;100383.31;1087794;54;19966;-81
2022/07/06 01:05:15;;;;;;;;;;;;;;;19.30;51.38;100389.97;1087764;54;19958;-81
2022/07/06 01:06:16;;;;;;;;;;;;;;;19.30;51.43;100389.97;1087898;54;19942;-83
2022/07/06 01:07:22;;;;;;;;;;;;;;;19.27;51.09;100390.38;1087798;54;20841;-82
2022/07/06 01:08:23;;;;;;;;;;;;;;;19.26;51.49;100388.69;1087846;54;19967;-83
2022/07/06 01:09:28;;;;;;;;;;;;;;;19.21;51.26;100400.13;1087806;54;19942;-82
2022/07/06 01:10:29;;;;;;;;;;;;;;;19.15;51.76;100393.59;1087826;54;19988;-82
2022/07/06 01:11:33;;;;;;;;;;;;;;;19.14;51.72;100397.34;1087998;54;19999;-82
2022/07/06 01:12:35;;;;;;;;;;;;;;;19.14;51.56;100391.91;1089534;47;19943;-81
2022/07/06 01:13:39;;;;;;;;;;;;;;;19.16;51.83;100397.13;1088017;54;19970;-83
2022/07/06 01:14:41;;;;;;;;;;;;;;;19.13;51.84;100398.38;1087783;54;19966;-81
2022/07/06 01:15:45;;;;;;;;;;;;;;;19.14;51.52;100402.75;1087781;54;19942;-83
2022/07/06 01:16:46;;;;;;;;;;;;;;;19.14;51.51;100401.91;1087852;54;19939;-82
2022/07/06 01:17:49;;;;;;;;;;;;;;;19.17;51.42;100386.13;1087875;54;19999;-83
2022/07/06 01:18:51;;;;;;;;;;;;;;;19.16;51.44;100395.28;1087831;54;19966;-81
2022/07/06 01:19:54;;;;;;;;;;;;;;;19.12;51.49;100388.56;1087756;54;19990;-80
2022/07/06 01:21:09;;;;;;;;;;;;;;;19.11;51.58;100386.88;1087840;54;19927;-80
2022/07/06 01:22:13;;;;;;;;;;;;;;;19.11;51.81;100389.59;1087774;54;19943;-84
2022/07/06 01:23:14;;;;;;;;;;;;;;;19.11;51.63;100386.88;1087790;54;19950;-82
2022/07/06 01:24:18;;;;;;;;;;;;;;;19.10;51.47;100390.59;1091441;39;20909;-83
2022/07/06 01:25:20;;;;;;;;;;;;;;;19.08;51.85;100384.53;1087722;54;19943;-83
2022/07/06 01:26:24;;;;;;;;;;;;;;;19.04;51.80;100377.84;1087726;54;19942;-83
2022/07/06 01:27:25;;;;;;;;;;;;;;;19.03;52.04;100378.88;1087744;54;19958;-84
2022/07/06 01:28:29;;;;;;;;;;;;;;;19.04;52.17;100380.56;1087766;54;19949;-83
2022/07/06 01:29:30;;;;;;;;;;;;;;;19.03;51.91;100387.00;1087815;54;19942;-84
2022/07/06 01:30:34;;;;;;;;;;;;;;;19.14;51.58;100375.66;1087752;54;19938;-83
2022/07/06 01:31:45;;;;;;;;;;;;;;;19.18;51.35;100376.94;1087766;54;19943;-83
2022/07/06 01:32:49;;;;;;;;;;;;;;;19.25;51.29;100373.47;1087732;54;19942;-83
2022/07/06 01:33:52;;;;;;;;;;;;;;;19.33;50.96;100370.63;1087832;54;19950;-82
2022/07/06 01:34:56;;;;;;;;;;;;;;;19.40;50.67;100379.63;1087689;54;20613;-83
2022/07/06 01:35:57;;;;;;;;;;;;;;;19.42;50.72;100377.59;1087753;54;19943;-82
2022/07/06 01:37:03;;;;;;;;;;;;;;;19.46;50.32;100378.84;1087783;54;19942;-83
2022/07/06 01:38:04;;;;;;;;;;;;;;;19.49;50.34;100377.66;1087787;54;19970;-84
2022/07/06 01:39:10;;;;;;;;;;;;;;;19.56;50.33;100388.53;1087737;54;19954;-83
2022/07/06 01:40:12;;;;;;;;;;;;;;;19.56;50.39;100383.09;1087726;54;19970;-83
2022/07/06 01:41:16;;;;;;;;;;;;;;;19.58;50.31;100386.47;1088288;47;20884;-81
2022/07/06 01:42:17;;;;;;;;;;;;;;;19.53;50.21;100384.34;1087750;54;19949;-83
2022/07/06 01:43:21;;;;;;;;;;;;;;;19.42;50.54;100383.00;1087710;54;20665;-81
2022/07/06 01:44:22;;;;;;;;;;;;;;;19.32;50.65;100383.31;1087739;54;19966;-82
2022/07/06 01:45:25;;;;;;;;;;;;;;;19.29;50.86;100380.16;1088078;39;20503;-83
2022/07/06 01:46:27;;;;;;;;;;;;;;;19.29;50.96;100374.75;1087705;54;19946;-84
2022/07/06 01:47:30;;;;;;;;;;;;;;;19.27;50.59;100376.81;1090946;39;20235;-82
2022/07/06 01:48:32;;;;;;;;;;;;;;;19.31;50.69;100378.97;1087730;54;19974;-83
2022/07/06 01:49:35;;;;;;;;;;;;;;;19.25;50.65;100370.75;1087759;54;19978;-81
2022/07/06 01:50:36;;;;;;;;;;;;;;;19.18;50.95;100379.63;1087709;54;19947;-83
2022/07/06 01:51:40;;;;;;;;;;;;;;;19.14;50.87;100382.94;1087678;54;19998;-83
2022/07/06 01:52:44;;;;;;;;;;;;;;;19.02;51.78;100386.19;1087706;54;19942;-82
2022/07/06 01:53:48;;;;;;;;;;;;;;;19.05;51.26;100381.38;1087726;54;19999;-82
2022/07/06 01:54:49;;;;;;;;;;;;;;;19.08;51.16;100381.00;1087848;54;19941;-83
2022/07/06 01:55:53;;;;;;;;;;;;;;;19.01;51.39;100380.94;1088071;54;19947;-81
2022/07/06 01:56:54;;;;;;;;;;;;;;;18.86;52.09;100378.22;1087967;54;19946;-82
2022/07/06 01:57:57;;;;;;;;;;;;;;;18.86;51.92;100375.53;1088761;46;19949;-82
2022/07/06 01:58:58;;;;;;;;;;;;;;;18.86;51.92;100381.81;1088088;54;19943;-81
2022/07/06 02:00:02;;;;;;;;;;;;;;;18.85;51.78;100384.69;1087995;54;19942;-80
2022/07/06 02:01:06;;;;;;;;;;;;;;;18.79;52.49;100383.59;1088444;54;19950;-81
2022/07/06 02:02:11;;;;;;;;;;;;;;;18.72;52.22;100393.50;1088411;54;19950;-81
2022/07/06 02:03:12;;;;;;;;;;;;;;;18.71;52.63;100386.38;1088482;54;20706;-82
2022/07/06 02:04:16;;;;;;;;;;;;;;;18.70;52.34;100395.56;1090461;39;20679;-81
2022/07/06 02:05:17;;;;;;;;;;;;;;;18.65;52.80;100384.47;1090169;46;19942;-80
2022/07/06 02:06:21;;;;;;;;;;;;;;;18.66;52.72;100389.66;1088385;54;19942;-81
2022/07/06 02:07:22;;;;;;;;;;;;;;;18.63;52.77;100391.91;1088497;54;19943;-83
2022/07/06 02:08:28;;;;;;;;;;;;;;;18.60;52.65;100384.19;1088479;54;19942;-80
2022/07/06 02:09:29;;;;;;;;;;;;;;;18.59;52.71;100380.63;1088469;54;20551;-83
2022/07/06 02:10:33;;;;;;;;;;;;;;;18.65;52.28;100387.16;1088448;54;19950;-80
2022/07/06 02:11:34;;;;;;;;;;;;;;;18.65;52.03;100387.16;1088450;54;19942;-82
2022/07/06 02:12:38;;;;;;;;;;;;;;;18.68;52.04;100389.50;1088496;54;19927;-82
2022/07/06 02:13:39;;;;;;;;;;;;;;;18.65;51.84;100392.56;1093508;39;20585;-82
2022/07/06 02:14:43;;;;;;;;;;;;;;;18.66;51.83;100386.97;1088511;54;19943;-83
2022/07/06 02:15:44;;;;;;;;;;;;;;;18.67;51.91;100391.34;1088102;54;20551;-82
2022/07/06 02:16:47;;;;;;;;;;;;;;;18.58;52.33;100391.66;1088049;54;19943;-81
2022/07/06 02:17:49;;;;;;;;;;;;;;;18.46;52.76;100394.84;1088063;54;19949;-82
2022/07/06 02:18:52;;;;;;;;;;;;;;;18.46;52.80;100394.84;1090464;39;20487;-82
2022/07/06 02:19:53;;;;;;;;;;;;;;;18.48;52.66;100387.38;1088437;54;19927;-83
2022/07/06 02:20:57;;;;;;;;;;;;;;;18.49;52.48;100391.78;1088448;54;19943;-81
2022/07/06 02:21:59;;;;;;;;;;;;;;;18.51;52.68;100388.88;1089946;39;20434;-82
2022/07/06 02:23:02;;;;;;;;;;;;;;;18.51;52.38;100392.44;1088425;54;19950;-82
2022/07/06 02:24:06;;;;;;;;;;;;;;;18.44;53.10;100396.06;1088410;54;19994;-82
2022/07/06 02:25:10;;;;;;;;;;;;;;;18.47;52.56;100391.13;1088360;54;19942;-83
2022/07/06 02:26:12;;;;;;;;;;;;;;;18.51;52.65;100396.97;1088432;54;19970;-83
2022/07/06 02:27:15;;;;;;;;;;;;;;;18.53;52.29;100395.75;1088455;54;19950;-84
2022/07/06 02:28:17;;;;;;;;;;;;;;;18.55;52.33;100396.41;1088475;54;19957;-82
2022/07/06 02:29:21;;;;;;;;;;;;;;;18.48;52.55;100397.34;1088431;54;19934;-84
2022/07/06 02:30:22;;;;;;;;;;;;;;;18.48;52.63;100395.50;1088363;54;19931;-83
2022/07/06 02:31:26;;;;;;;;;;;;;;;18.49;53.06;100396.31;1088441;54;19943;-83
2022/07/06 02:32:27;;;;;;;;;;;;;;;18.47;52.66;100396.53;1088443;54;19943;-82
2022/07/06 02:33:31;;;;;;;;;;;;;;;18.50;52.69;100398.88;1088200;54;19997;-83
2022/07/06 02:34:32;;;;;;;;;;;;;;;18.49;52.59;100389.06;1088024;54;19950;-83
2022/07/06 02:35:37;;;;;;;;;;;;;;;18.46;52.97;100400.25;1087930;54;19943;-83
2022/07/06 02:36:38;;;;;;;;;;;;;;;18.50;52.62;100392.59;1088434;54;19973;-84
2022/07/06 02:37:42;;;;;;;;;;;;;;;18.54;52.51;100392.03;1088458;54;20527;-82
2022/07/06 02:38:43;;;;;;;;;;;;;;;18.57;52.38;100396.22;1088426;54;19942;-84
2022/07/06 02:39:50;;;;;;;;;;;;;;;18.49;52.74;100399.03;1088362;54;19990;-82
2022/07/06 02:40:51;;;;;;;;;;;;;;;18.54;52.69;100393.91;1088467;54;20038;-80
2022/07/06 02:41:55;;;;;;;;;;;;;;;18.53;52.23;100387.63;1088385;54;19931;-82
2022/07/06 02:42:56;;;;;;;;;;;;;;;18.55;52.26;100391.00;1091060;46;19942;-81
2022/07/06 02:44:00;;;;;;;;;;;;;;;18.59;52.21;100387.94;1088468;54;19942;-84
2022/07/06 02:45:01;;;;;;;;;;;;;;;18.46;53.10;100389.44;1088318;54;19939;-83
2022/07/06 02:46:05;;;;;;;;;;;;;;;18.47;52.89;100387.53;1088426;54;19942;-82
2022/07/06 02:47:06;;;;;;;;;;;;;;;18.45;52.75;100398.56;1088421;54;19939;-84
2022/07/06 02:48:09;;;;;;;;;;;;;;;18.46;52.63;100389.44;1089795;39;20034;-82
2022/07/06 02:49:11;;;;;;;;;;;;;;;18.33;53.43;100390.09;1088435;54;19966;-82
2022/07/06 02:50:14;;;;;;;;;;;;;;;18.35;53.02;100393.47;1088339;54;20546;-83
2022/07/06 02:51:16;;;;;;;;;;;;;;;18.42;52.62;100390.00;1090838;39;20204;-83
2022/07/06 02:52:19;;;;;;;;;;;;;;;18.48;52.67;100395.50;1088006;54;19962;-83
2022/07/06 02:53:21;;;;;;;;;;;;;;;18.52;52.30;100394.06;1088043;54;19943;-83
2022/07/06 02:54:24;;;;;;;;;;;;;;;18.48;52.63;100398.22;1088487;54;19942;-81
2022/07/06 02:55:28;;;;;;;;;;;;;;;18.46;52.54;100397.56;1088392;54;19942;-81
2022/07/06 02:56:32;;;;;;;;;;;;;;;18.53;52.51;100400.34;1088473;54;19990;-82
2022/07/06 02:57:33;;;;;;;;;;;;;;;18.43;53.10;100397.91;1088379;54;19926;-83
2022/07/06 02:58:37;;;;;;;;;;;;;;;18.37;52.88;100406.78;1088443;54;19949;-82
2022/07/06 02:59:38;;;;;;;;;;;;;;;18.32;53.06;100407.34;1088416;54;19942;-82
2022/07/06 06:08:11;;;;;;;;;;;;;;;18.39;53.57;100508.41;1085070;54;19950;-78
2022/07/06 06:09:14;;;;;;;;;;;;;;;18.23;54.05;100514.84;1085700;54;19951;-77
2022/07/06 06:10:21;;;;;;;;;;;;;;;18.30;53.78;100509.53;1087197;54;19934;-79
2022/07/06 06:49:22;;;;;;;;;;;;;;;19.65;50.64;100512.09;1085297;39;21134;-78
2022/07/06 06:50:23;;;;;;;;;;;;;;;19.52;50.45;100514.69;1084393;47;20516;-78
2022/07/06 06:51:29;;;;;;;;;;;;;;;19.52;50.71;100509.25;1084262;46;19947;-77
2022/07/06 06:52:30;;;;;;;;;;;;;;;19.62;50.58;100512.50;1084367;54;19976;-79
2022/07/06 06:53:34;;;;;;;;;;;;;;;19.64;50.71;100515.84;1083735;54;19995;-77
2022/07/06 06:54:36;;;;;;;;;;;;;;;19.38;51.28;100509.09;1085819;39;20001;-78
2022/07/06 06:55:43;;;;;;;;;;;;;;;19.32;51.69;100518.00;1084141;54;19945;-78
2022/07/06 06:56:45;;;;;;;;;;;;;;;19.40;51.32;100511.66;1084980;54;19939;-77
2022/07/06 06:57:49;;;;;;;;;;;;;;;19.31;51.87;100519.91;1084909;54;19958;-78
2022/07/06 06:59:05;;;;;;;;;;;;;;;19.48;51.38;100511.53;1085346;39;20363;-78
2022/07/06 07:00:12;;;;;;;;;;;;;;;19.75;50.55;100512.59;1085102;54;19970;-79
2022/07/06 07:01:41;;;;;;;;;;;;;;;19.94;50.46;100515.72;1086136;54;20449;-79
2022/07/06 07:02:47;;;;;;;;;;;;;;;20.08;50.00;100505.81;1085530;46;20468;-79
2022/07/06 07:03:51;;;;;;;;;;;;;;;20.19;49.81;100516.16;1084683;54;19994;-79
2022/07/06 07:04:54;;;;;;;;;;;;;;;20.23;48.75;100519.31;1084562;39;20322;-78
2022/07/06 07:07:58;;;;;;;;;;;;;;;20.18;48.94;100510.94;1084510;54;19983;-80
2022/07/06 07:09:06;;;;;;;;;;;;;;;20.21;48.52;100513.25;1084084;54;19954;-79
2022/07/06 07:10:10;;;;;;;;;;;;;;;20.39;48.43;100515.47;1084016;54;20529;-79
2022/07/06 07:11:13;;;;;;;;;;;;;;;20.49;48.58;100513.22;1084540;54;19939;-78
2022/07/06 07:12:17;;;;;;;;;;;;;;;20.51;48.30;100511.16;1085234;54;19950;-82
2022/07/06 07:13:22;;;;;;;;;;;;;;;20.44;48.43;100514.88;1088061;54;19927;-81
2022/07/06 07:14:24;;;;;;;;;;;;;;;20.70;48.06;100514.19;1087592;54;19970;-81
2022/07/06 07:15:28;;;;;;;;;;;;;;;20.80;47.94;100513.84;1084150;54;19954;-79
2022/07/06 07:16:39;;;;;;;;;;;;;;;20.92;47.93;100503.28;1083626;54;19950;-78
2022/07/06 07:17:40;;;;;;;;;;;;;;;21.00;47.73;100511.25;1084565;54;19946;-79
2022/07/06 07:19:00;;;;;;;;;;;;;;;21.08;47.75;100502.06;1086691;54;19983;-78
2022/07/06 07:20:05;;;;;;;;;;;;;;;21.08;47.22;100507.50;1084753;54;19974;-79
2022/07/06 07:21:31;;;;;;;;;;;;;;;20.87;47.42;100512.03;1084714;54;19947;-78
2022/07/06 07:22:33;;;;;;;;;;;;;;;20.82;47.35;100512.63;1084726;54;20453;-76
2022/07/06 07:23:52;;;;;;;;;;;;;;;21.04;47.28;100510.66;1083817;54;19947;-79
2022/07/06 07:24:53;;;;;;;;;;;;;;;21.17;46.46;100509.00;1084083;54;19974;-77
2022/07/06 07:25:57;;;;;;;;;;;;;;;21.18;46.35;100513.41;1085998;54;19943;-80
2022/07/06 07:26:59;;;;;;;;;;;;;;;21.03;47.04;100513.53;1087349;54;19942;-79
2022/07/06 07:28:10;;;;;;;;;;;;;;;20.95;46.91;100516.44;1088417;46;19935;-78
2022/07/06 07:29:12;;;;;;;;;;;;;;;20.95;47.15;100514.56;1084345;54;19974;-78
2022/07/06 07:31:59;;;;;;;;;;;;;;;20.90;47.62;100513.50;1084932;39;20353;-77
2022/07/06 07:43:33;;;;;;;;;;;;;;;21.88;45.39;100515.91;1082649;54;20484;-77
2022/07/06 07:44:38;;;;;;;;;;;;;;;21.97;45.41;100509.19;1083578;54;19945;-76
2022/07/06 07:45:42;;;;;;;;;;;;;;;22.03;45.02;100507.53;1086921;54;19950;-80
2022/07/06 07:53:47;;;;;;;;;;;;;;;22.09;44.59;100503.94;1088050;54;19927;-79
2022/07/06 07:54:48;;;;;;;;;;;;;;;22.22;44.65;100497.66;1085838;54;19946;-79
2022/07/06 07:55:52;;;;;;;;;;;;;;;22.36;44.24;100500.38;1085307;54;19958;-80
2022/07/06 07:56:54;;;;;;;;;;;;;;;22.44;44.15;100495.56;1085197;54;19947;-80
2022/07/06 07:57:57;;;;;;;;;;;;;;;22.32;44.19;100501.84;1085217;54;19957;-78
2022/07/06 07:59:01;;;;;;;;;;;;;;;22.16;44.45;100501.25;1085653;54;19973;-81
2022/07/06 08:00:06;;;;;;;;;;;;;;;22.29;44.59;100500.38;1085334;54;20018;-78
2022/07/06 08:01:10;;;;;;;;;;;;;;;22.59;44.24;100500.78;1084412;54;19981;-78
2022/07/06 08:02:11;;;;;;;;;;;;;;;22.81;43.94;100494.22;1085175;54;19946;-78
2022/07/06 08:03:15;;;;;;;;;;;;;;;22.80;43.79;100496.09;1084899;54;19950;-79
2022/07/06 08:04:16;;;;;;;;;;;;;;;22.58;43.50;100496.38;1085069;54;19939;-79
2022/07/06 08:05:20;;;;;;;;;;;;;;;22.73;43.90;100500.75;1087866;39;20388;-80
2022/07/06 08:06:21;;;;;;;;;;;;;;;22.61;43.21;100499.72;1084849;54;19962;-79
2022/07/06 08:07:25;;;;;;;;;;;;;;;22.39;43.93;100498.06;1085543;54;19947;-79
2022/07/06 08:08:26;;;;;;;;;;;;;;;22.48;43.90;100493.28;1085234;54;20006;-79
2022/07/06 08:09:30;;;;;;;;;;;;;;;22.25;44.17;100491.81;1085791;39;20784;-79
2022/07/06 08:10:34;;;;;;;;;;;;;;;22.33;44.11;100489.91;1085026;54;19953;-79
2022/07/06 08:11:35;;;;;;;;;;;;;;;22.39;44.28;100494.50;1084909;54;19951;-79
2022/07/06 08:12:39;;;;;;;;;;;;;;;22.72;43.84;100488.16;1084774;54;19946;-78
2022/07/06 08:13:41;;;;;;;;;;;;;;;22.82;43.41;100496.72;1085250;54;19950;-78
2022/07/06 08:14:48;;;;;;;;;;;;;;;22.83;43.40;100482.06;1084624;54;19974;-79
2022/07/06 08:15:49;;;;;;;;;;;;;;;22.49;43.44;100486.75;1084355;54;19970;-80
2022/07/06 08:16:54;;;;;;;;;;;;;;;22.26;44.24;100487.19;1085017;54;20065;-80
2022/07/06 08:17:55;;;;;;;;;;;;;;;22.40;44.06;100483.44;1086789;39;20368;-80
2022/07/06 08:18:59;;;;;;;;;;;;;;;22.73;43.36;100482.50;1085073;54;19939;-79
2022/07/06 08:20:11;;;;;;;;;;;;;;;22.90;43.21;100491.03;1085273;54;19946;-79
2022/07/06 08:21:15;;;;;;;;;;;;;;;22.58;43.04;100482.75;1084913;54;19951;-80
2022/07/06 08:22:19;;;;;;;;;;;;;;;22.47;43.40;100491.59;1085913;39;20406;-79
2022/07/06 08:23:23;;;;;;;;;;;;;;;22.82;43.38;100476.81;1084767;54;19953;-79
2022/07/06 08:24:34;;;;;;;;;;;;;;;23.17;42.71;100477.28;1085294;54;19961;-80
2022/07/06 08:25:48;;;;;;;;;;;;;;;22.72;42.96;100483.53;1085166;54;19970;-79
2022/07/06 08:26:49;;;;;;;;;;;;;;;23.01;42.33;100489.50;1085140;54;19950;-80
2022/07/06 08:28:12;;;;;;;;;;;;;;;23.30;41.72;100481.03;1085818;54;20471;-79
2022/07/06 08:29:16;;;;;;;;;;;;;;;23.47;41.57;100482.19;1086513;39;20692;-82
2022/07/06 08:30:31;;;;;;;;;;;;;;;23.74;41.37;100481.97;1085820;54;19954;-80
2022/07/06 08:32:09;;;;;;;;;;;;;;;23.41;41.59;100474.88;1086652;54;19950;-80
2022/07/06 08:38:43;;;;;;;;;;;;;;;23.15;41.57;100487.56;1083819;54;19950;-79
2022/07/06 08:39:45;;;;;;;;;;;;;;;22.93;42.01;100488.94;1085865;54;20018;-80
2022/07/06 08:40:50;;;;;;;;;;;;;;;22.99;42.16;100480.75;1084924;54;19970;-80
2022/07/06 08:41:51;;;;;;;;;;;;;;;23.36;41.65;100488.31;1086025;54;19946;-79
2022/07/06 08:42:56;;;;;;;;;;;;;;;23.66;41.26;100482.25;1085397;54;19947;-79
2022/07/06 08:43:58;;;;;;;;;;;;;;;23.93;41.21;100479.31;1086698;54;19957;-79
2022/07/06 08:45:02;;;;;;;;;;;;;;;24.03;40.34;100471.50;1087305;54;19939;-79
2022/07/06 08:46:06;;;;;;;;;;;;;;;24.07;40.49;100472.72;1087054;54;19943;-78
2022/07/06 08:47:18;;;;;;;;;;;;;;;24.07;40.37;100483.66;1087227;54;19947;-79
2022/07/06 08:48:27;;;;;;;;;;;;;;;24.10;40.35;100475.00;1087683;47;19934;-79
2022/07/06 08:49:33;;;;;;;;;;;;;;;24.21;39.80;100478.03;1087410;54;19934;-79
2022/07/06 08:51:10;;;;;;;;;;;;;;;24.29;39.70;100480.47;1087777;54;19998;-78
2022/07/06 08:57:43;;;;;;;;;;;;;;;;;;;;;
2022/07/06 08:58:47;;;;;;;;;;;;;;;24.58;39.05;100478.09;1087977;54;19943;-78
2022/07/06 08:59:52;;;;;;;;;;;;;;;23.99;40.27;100492.13;1087362;54;20578;-80
2022/07/06 09:00:54;;;;;;;;;;;;;;;23.94;40.43;100483.72;1091558;39;20346;-79
2022/07/06 09:02:01;;;;;;;;;;;;;;;24.31;39.72;100483.84;1087382;47;19949;-79
2022/07/06 09:03:03;;;;;;;;;;;;;;;24.33;39.87;100486.31;1087677;39;20331;-80
2022/07/06 09:04:08;;;;;;;;;;;;;;;24.48;39.41;100481.34;1085515;54;20665;-79
2022/07/06 09:05:13;;;;;;;;;;;;;;;24.00;39.96;100477.38;1084940;54;20443;-78
2022/07/06 09:06:19;;;;;;;;;;;;;;;24.09;39.71;100476.03;1084943;54;20014;-79
2022/07/06 09:07:21;;;;;;;;;;;;;;;23.88;40.04;100488.19;1084817;54;19947;-79
2022/07/06 09:08:27;;;;;;;;;;;;;;;23.87;40.02;100488.41;1085203;54;19989;-79
2022/07/06 09:09:30;;;;;;;;;;;;;;;24.40;39.51;100487.94;1087462;54;19949;-80
2022/07/06 09:10:34;;;;;;;;;;;;;;;24.72;38.97;100485.13;1088041;46;19965;-79
2022/07/06 09:11:37;;;;;;;;;;;;;;;24.98;38.54;100480.38;1087271;54;20032;-80
2022/07/06 09:12:41;;;;;;;;;;;;;;;25.19;37.72;100479.03;1087579;54;19950;-79
2022/07/06 09:13:42;;;;;;;;;;;;;;;25.14;37.87;100484.38;1087552;54;19942;-79
2022/07/06 09:14:46;;;;;;;;;;;;;;;25.22;37.97;100480.50;1087835;54;19957;-79
2022/07/06 09:15:48;;;;;;;;;;;;;;;24.99;38.17;100478.47;1086663;54;19946;-79
2022/07/06 09:16:54;;;;;;;;;;;;;;;24.80;38.64;100475.75;1087217;46;20018;-79
2022/07/06 09:17:58;;;;;;;;;;;;;;;25.01;38.27;100476.34;1087241;54;19946;-79
2022/07/06 09:19:02;;;;;;;;;;;;;;;25.23;38.00;100479.41;1086066;54;19971;-79
2022/07/06 09:20:09;;;;;;;;;;;;;;;25.23;37.49;100479.41;1085491;54;19946;-79
2022/07/06 09:21:13;;;;;;;;;;;;;;;25.37;37.33;100478.16;1085693;54;19946;-78
2022/07/06 09:22:27;;;;;;;;;;;;;;;25.68;37.06;100475.41;1085922;54;19970;-80
2022/07/06 09:23:32;;;;;;;;;;;;;;;24.84;37.68;100482.44;1086277;54;19946;-79
2022/07/06 09:24:41;;;;;;;;;;;;;;;25.01;37.59;100492.75;1084867;54;19938;-78
2022/07/06 09:25:42;;;;;;;;;;;;;;;25.32;37.33;100483.47;1085154;54;19953;-78
2022/07/06 09:26:47;;;;;;;;;;;;;;;25.50;37.05;100490.84;1086191;54;19946;-79
2022/07/06 09:27:54;;;;;;;;;;;;;;;25.37;36.75;100482.78;1086955;46;19964;-81
2022/07/06 09:28:59;;;;;;;;;;;;;;;24.74;37.92;100484.88;1089523;39;20451;-80
2022/07/06 09:30:01;;;;;;;;;;;;;;;24.75;38.25;100490.09;1087301;39;20467;-78
2022/07/06 09:31:09;;;;;;;;;;;;;;;24.67;38.63;100495.03;1086654;39;20329;-79
2022/07/06 09:32:13;;;;;;;;;;;;;;;24.44;39.34;100493.78;1086279;54;19947;-80
2022/07/06 09:33:19;;;;;;;;;;;;;;;24.42;39.77;100488.56;1086048;54;19947;-79
2022/07/06 09:34:23;;;;;;;;;;;;;;;24.65;39.01;100489.81;1086631;54;19947;-80
2022/07/06 09:35:28;;;;;;;;;;;;;;;24.95;38.50;100488.22;1085196;54;19977;-81
2022/07/06 09:38:07;;;;;;;;;;;;;;;25.44;38.22;100486.31;1085141;54;20851;-80
2022/07/06 09:39:15;;;;;;;;;;;;;;;25.59;37.68;100491.34;1085180;54;20078;-79
2022/07/06 09:40:20;;;;;;;;;;;;;;;25.64;37.50;100486.00;1086278;54;19973;-79
2022/07/06 09:41:31;;;;;;;;;;;;;;;25.79;37.26;100482.00;1085932;54;19951;-78
2022/07/06 09:42:35;;;;;;;;;;;;;;;25.51;37.43;100486.19;1087669;46;19953;-80
2022/07/06 09:43:38;;;;;;;;;;;;;;;25.22;38.06;100492.25;1086630;54;19946;-80
2022/07/06 09:44:41;;;;;;;;;;;;;;;25.33;37.83;100485.16;1086715;46;20570;-78
2022/07/06 09:45:46;;;;;;;;;;;;;;;25.53;37.75;100493.13;1085753;54;19951;-79
2022/07/06 09:46:47;;;;;;;;;;;;;;;25.76;37.48;100488.75;1087683;39;20189;-79
2022/07/06 09:47:51;;;;;;;;;;;;;;;25.83;36.91;100492.25;1086220;54;20285;-79
2022/07/06 09:48:58;;;;;;;;;;;;;;;25.87;36.57;100489.88;1085936;46;19954;-80
2022/07/06 09:50:02;;;;;;;;;;;;;;;25.40;36.98;100496.03;1085791;54;19951;-80